This is the latest recevied weather packets stored in our database for station/object KB8SSH. If no packets are shown the sender has not sent any weather packets the latest 10 day(s).
| Time | Temp. | Humidity | Pressure | Rain* | Wind** | Luminosity | Snow |
|---|---|---|---|---|---|---|---|
| 1777927963 | 21.67° C | 53% | 1040.1 hPa | 0 mm | - | 229 W/m² | - |
| 1777927661 | 21.67° C | 55% | 1040.4 hPa | 0 mm | - | 166 W/m² | - |
| 1777927359 | 21.67° C | 58% | 1040.1 hPa | 0 mm | - | 147 W/m² | - |
| 1777927058 | 21.11° C | 59% | 1040.4 hPa | 0 mm | - | 117 W/m² | - |
| 1777926755 | 21.67° C | 58% | 1040.4 hPa | 0 mm | - | 112 W/m² | - |
| 1777926455 | 21.67° C | 57% | 1040.8 hPa | 0 mm | - | 101 W/m² | - |
| 1777926153 | 22.22° C | 57% | 1040.8 hPa | 0 mm | - | 161 W/m² | - |
| 1777925850 | 22.22° C | 56% | 1040.8 hPa | 0 mm | - | 252 W/m² | - |
| 1777925547 | 21.67° C | 56% | 1040.8 hPa | 0 mm | - | 216 W/m² | - |
| 1777925245 | 21.67° C | 56% | 1041.1 hPa | 0 mm | - | 134 W/m² | - |
| 1777924940 | 21.67° C | 56% | 1041.1 hPa | 0 mm | - | 135 W/m² | - |
| 1777924637 | 22.78° C | 54% | 1041.1 hPa | 0 mm | - | 168 W/m² | - |
| 1777924333 | 23.33° C | 53% | 1040.8 hPa | 0 mm | - | 228 W/m² | - |
| 1777924030 | 23.33° C | 51% | 1040.8 hPa | 0 mm | - | 645 W/m² | - |
| 1777923726 | 23.33° C | 50% | 1040.8 hPa | 0 mm | - | 607 W/m² | - |
| 1777923423 | 23.33° C | 51% | 1041.1 hPa | 0 mm | - | 638 W/m² | - |
| 1777923120 | 23.33° C | 52% | 1041.1 hPa | 0 mm | - | 675 W/m² | - |
| 1777922818 | 23.89° C | 52% | 1040.8 hPa | 0 mm | - | 667 W/m² | - |
| 1777922516 | 23.89° C | 52% | 1040.8 hPa | 0 mm | - | 640 W/m² | - |
| 1777922214 | 23.89° C | 51% | 1040.8 hPa | 0 mm | - | 269 W/m² | - |
| 1777921910 | 23.33° C | 52% | 1040.4 hPa | 0 mm | - | 701 W/m² | - |
| 1777921606 | 23.89° C | 52% | 1040.8 hPa | 0 mm | - | 665 W/m² | - |
| 1777921298 | 23.89° C | 51% | 1040.8 hPa | 0 mm | - | 394 W/m² | - |
| 1777920994 | 23.33° C | 52% | 1040.4 hPa | 0 mm | - | 772 W/m² | - |
| 1777920691 | 23.89° C | 50% | 1040.8 hPa | 0 mm | - | 352 W/m² | - |
* Rain latest hour (hover to see other rain measurements)
** Current wind speed in m/s (hover to see current wind gust speed)